sensor_id;sensor_type;location;lat;lon;timestamp;P1;durP1;ratioP1;P2;durP2;ratioP2
30818;SDS011;17546;42.674;23.284;2023-02-28T00:00:28;28.63;;;16.42;;
30818;SDS011;17546;42.674;23.284;2023-02-28T00:02:54;33.33;;;16.38;;
30818;SDS011;17546;42.674;23.284;2023-02-28T00:05:20;31.77;;;17.73;;
30818;SDS011;17546;42.674;23.284;2023-02-28T00:07:48;34.30;;;17.13;;
30818;SDS011;17546;42.674;23.284;2023-02-28T00:10:16;30.92;;;15.88;;
30818;SDS011;17546;42.674;23.284;2023-02-28T00:12:52;33.40;;;16.75;;
30818;SDS011;17546;42.674;23.284;2023-02-28T00:15:22;24.90;;;14.70;;
30818;SDS011;17546;42.674;23.284;2023-02-28T00:17:48;27.35;;;14.23;;
30818;SDS011;17546;42.674;23.284;2023-02-28T00:20:14;26.48;;;13.95;;
30818;SDS011;17546;42.674;23.284;2023-02-28T00:22:44;26.70;;;12.85;;
30818;SDS011;17546;42.674;23.284;2023-02-28T00:25:14;25.88;;;13.85;;
30818;SDS011;17546;42.674;23.284;2023-02-28T00:27:43;29.27;;;15.32;;
30818;SDS011;17546;42.674;23.284;2023-02-28T00:30:10;35.78;;;17.40;;
30818;SDS011;17546;42.674;23.284;2023-02-28T00:32:37;46.03;;;25.77;;
30818;SDS011;17546;42.674;23.284;2023-02-28T00:35:03;61.92;;;32.78;;
30818;SDS011;17546;42.674;23.284;2023-02-28T00:37:34;51.35;;;28.45;;
30818;SDS011;17546;42.674;23.284;2023-02-28T00:40:00;35.90;;;16.92;;
30818;SDS011;17546;42.674;23.284;2023-02-28T00:42:26;37.40;;;20.63;;
30818;SDS011;17546;42.674;23.284;2023-02-28T00:44:51;30.73;;;15.80;;
30818;SDS011;17546;42.674;23.284;2023-02-28T00:47:17;21.98;;;12.35;;
30818;SDS011;17546;42.674;23.284;2023-02-28T00:49:42;19.75;;;11.32;;
30818;SDS011;17546;42.674;23.284;2023-02-28T00:52:08;23.25;;;12.55;;
30818;SDS011;17546;42.674;23.284;2023-02-28T00:54:34;24.90;;;13.10;;
30818;SDS011;17546;42.674;23.284;2023-02-28T00:57:00;21.67;;;13.32;;
30818;SDS011;17546;42.674;23.284;2023-02-28T00:59:25;24.02;;;12.90;;
30818;SDS011;17546;42.674;23.284;2023-02-28T01:01:51;21.45;;;12.23;;
30818;SDS011;17546;42.674;23.284;2023-02-28T01:04:16;25.55;;;14.32;;
30818;SDS011;17546;42.674;23.284;2023-02-28T01:06:42;32.72;;;17.02;;
30818;SDS011;17546;42.674;23.284;2023-02-28T01:09:08;36.58;;;18.08;;
30818;SDS011;17546;42.674;23.284;2023-02-28T01:11:34;37.72;;;18.90;;
30818;SDS011;17546;42.674;23.284;2023-02-28T01:14:00;39.15;;;20.58;;
30818;SDS011;17546;42.674;23.284;2023-02-28T01:16:26;39.47;;;21.23;;
30818;SDS011;17546;42.674;23.284;2023-02-28T01:18:52;46.28;;;22.25;;
30818;SDS011;17546;42.674;23.284;2023-02-28T01:21:19;40.95;;;22.00;;
30818;SDS011;17546;42.674;23.284;2023-02-28T01:23:46;45.17;;;24.60;;
30818;SDS011;17546;42.674;23.284;2023-02-28T01:26:14;47.70;;;24.25;;
30818;SDS011;17546;42.674;23.284;2023-02-28T01:28:44;47.30;;;25.02;;
30818;SDS011;17546;42.674;23.284;2023-02-28T01:31:09;46.28;;;24.80;;
30818;SDS011;17546;42.674;23.284;2023-02-28T01:33:36;47.53;;;23.10;;
30818;SDS011;17546;42.674;23.284;2023-02-28T01:36:06;47.30;;;24.08;;
30818;SDS011;17546;42.674;23.284;2023-02-28T01:38:36;42.35;;;22.45;;
30818;SDS011;17546;42.674;23.284;2023-02-28T01:41:01;47.53;;;22.77;;
30818;SDS011;17546;42.674;23.284;2023-02-28T01:43:29;50.45;;;24.33;;
30818;SDS011;17546;42.674;23.284;2023-02-28T01:45:57;53.60;;;24.83;;
30818;SDS011;17546;42.674;23.284;2023-02-28T01:48:27;50.08;;;24.15;;
30818;SDS011;17546;42.674;23.284;2023-02-28T01:50:59;48.80;;;23.57;;
30818;SDS011;17546;42.674;23.284;2023-02-28T01:53:32;55.85;;;23.65;;
30818;SDS011;17546;42.674;23.284;2023-02-28T01:56:02;52.22;;;24.80;;
30818;SDS011;17546;42.674;23.284;2023-02-28T01:58:31;60.42;;;26.23;;
30818;SDS011;17546;42.674;23.284;2023-02-28T02:00:56;69.65;;;28.52;;
30818;SDS011;17546;42.674;23.284;2023-02-28T02:03:22;64.47;;;30.20;;
30818;SDS011;17546;42.674;23.284;2023-02-28T02:05:48;73.90;;;30.73;;
30818;SDS011;17546;42.674;23.284;2023-02-28T02:08:19;71.95;;;32.17;;
30818;SDS011;17546;42.674;23.284;2023-02-28T02:10:54;73.50;;;31.00;;
30818;SDS011;17546;42.674;23.284;2023-02-28T02:18:53;68.93;;;31.10;;
30818;SDS011;17546;42.674;23.284;2023-02-28T02:25:03;78.70;;;30.73;;
30818;SDS011;17546;42.674;23.284;2023-02-28T02:41:19;83.75;;;32.25;;
30818;SDS011;17546;42.674;23.284;2023-02-28T02:43:48;95.60;;;34.70;;
30818;SDS011;17546;42.674;23.284;2023-02-28T02:46:21;87.18;;;32.90;;
30818;SDS011;17546;42.674;23.284;2023-02-28T02:48:54;82.40;;;32.20;;
30818;SDS011;17546;42.674;23.284;2023-02-28T02:51:21;86.35;;;33.13;;
30818;SDS011;17546;42.674;23.284;2023-02-28T02:53:57;79.05;;;31.55;;
30818;SDS011;17546;42.674;23.284;2023-02-28T02:56:31;82.10;;;31.92;;
30818;SDS011;17546;42.674;23.284;2023-02-28T02:59:07;74.93;;;30.60;;
30818;SDS011;17546;42.674;23.284;2023-02-28T03:01:36;70.43;;;29.52;;
30818;SDS011;17546;42.674;23.284;2023-02-28T03:04:10;74.15;;;30.40;;
30818;SDS011;17546;42.674;23.284;2023-02-28T03:06:45;82.05;;;30.88;;
30818;SDS011;17546;42.674;23.284;2023-02-28T03:09:10;67.93;;;28.65;;
30818;SDS011;17546;42.674;23.284;2023-02-28T03:11:37;73.70;;;29.15;;
30818;SDS011;17546;42.674;23.284;2023-02-28T03:17:07;73.60;;;30.58;;
30818;SDS011;17546;42.674;23.284;2023-02-28T03:22:46;79.45;;;30.10;;
30818;SDS011;17546;42.674;23.284;2023-02-28T03:27:58;73.40;;;28.50;;
30818;SDS011;17546;42.674;23.284;2023-02-28T03:37:03;73.65;;;30.90;;
30818;SDS011;17546;42.674;23.284;2023-02-28T03:39:42;69.95;;;29.15;;
30818;SDS011;17546;42.674;23.284;2023-02-28T03:42:14;69.65;;;30.02;;
30818;SDS011;17546;42.674;23.284;2023-02-28T03:44:43;69.72;;;29.20;;
30818;SDS011;17546;42.674;23.284;2023-02-28T03:47:15;68.22;;;28.77;;
30818;SDS011;17546;42.674;23.284;2023-02-28T03:52:37;70.18;;;30.73;;
30818;SDS011;17546;42.674;23.284;2023-02-28T03:55:10;77.22;;;31.25;;
30818;SDS011;17546;42.674;23.284;2023-02-28T03:57:40;71.30;;;31.35;;
30818;SDS011;17546;42.674;23.284;2023-02-28T04:00:35;68.07;;;29.05;;
30818;SDS011;17546;42.674;23.284;2023-02-28T04:03:03;70.82;;;30.10;;
30818;SDS011;17546;42.674;23.284;2023-02-28T04:05:32;67.78;;;29.25;;
30818;SDS011;17546;42.674;23.284;2023-02-28T04:08:10;63.67;;;28.05;;
30818;SDS011;17546;42.674;23.284;2023-02-28T04:10:35;68.97;;;28.73;;
30818;SDS011;17546;42.674;23.284;2023-02-28T04:13:01;61.17;;;28.92;;
30818;SDS011;17546;42.674;23.284;2023-02-28T04:15:26;61.55;;;28.75;;
30818;SDS011;17546;42.674;23.284;2023-02-28T04:17:53;71.25;;;32.17;;
30818;SDS011;17546;42.674;23.284;2023-02-28T04:20:19;67.50;;;30.25;;
30818;SDS011;17546;42.674;23.284;2023-02-28T04:22:44;64.90;;;27.98;;
30818;SDS011;17546;42.674;23.284;2023-02-28T04:25:10;59.35;;;27.90;;
30818;SDS011;17546;42.674;23.284;2023-02-28T04:27:35;63.67;;;28.27;;
30818;SDS011;17546;42.674;23.284;2023-02-28T04:30:01;57.42;;;27.60;;
30818;SDS011;17546;42.674;23.284;2023-02-28T04:32:27;51.47;;;26.80;;
30818;SDS011;17546;42.674;23.284;2023-02-28T04:34:52;58.35;;;27.45;;
30818;SDS011;17546;42.674;23.284;2023-02-28T04:37:18;56.20;;;26.77;;
30818;SDS011;17546;42.674;23.284;2023-02-28T04:39:43;47.60;;;25.23;;
30818;SDS011;17546;42.674;23.284;2023-02-28T04:42:09;55.35;;;25.42;;
30818;SDS011;17546;42.674;23.284;2023-02-28T04:44:36;51.97;;;25.63;;
30818;SDS011;17546;42.674;23.284;2023-02-28T04:47:01;57.85;;;26.65;;
30818;SDS011;17546;42.674;23.284;2023-02-28T04:49:27;57.42;;;26.88;;
30818;SDS011;17546;42.674;23.284;2023-02-28T04:51:53;56.50;;;26.45;;
30818;SDS011;17546;42.674;23.284;2023-02-28T04:54:18;70.38;;;28.23;;
30818;SDS011;17546;42.674;23.284;2023-02-28T04:56:44;61.75;;;28.20;;
30818;SDS011;17546;42.674;23.284;2023-02-28T04:59:10;59.40;;;27.15;;
30818;SDS011;17546;42.674;23.284;2023-02-28T05:01:35;59.60;;;27.05;;
30818;SDS011;17546;42.674;23.284;2023-02-28T05:04:02;69.53;;;28.75;;
30818;SDS011;17546;42.674;23.284;2023-02-28T05:06:29;56.72;;;25.85;;
30818;SDS011;17546;42.674;23.284;2023-02-28T05:08:56;63.97;;;27.67;;
30818;SDS011;17546;42.674;23.284;2023-02-28T05:11:27;62.55;;;27.83;;
30818;SDS011;17546;42.674;23.284;2023-02-28T05:13:58;57.65;;;26.25;;
30818;SDS011;17546;42.674;23.284;2023-02-28T05:16:24;55.17;;;25.35;;
30818;SDS011;17546;42.674;23.284;2023-02-28T05:18:49;61.50;;;25.75;;
30818;SDS011;17546;42.674;23.284;2023-02-28T05:21:21;57.72;;;25.13;;
30818;SDS011;17546;42.674;23.284;2023-02-28T05:23:56;60.10;;;26.13;;
30818;SDS011;17546;42.674;23.284;2023-02-28T05:26:33;55.15;;;26.30;;
30818;SDS011;17546;42.674;23.284;2023-02-28T05:29:04;58.10;;;26.58;;
30818;SDS011;17546;42.674;23.284;2023-02-28T05:31:30;59.72;;;27.05;;
30818;SDS011;17546;42.674;23.284;2023-02-28T05:33:55;53.20;;;26.05;;
30818;SDS011;17546;42.674;23.284;2023-02-28T05:36:21;61.80;;;27.08;;
30818;SDS011;17546;42.674;23.284;2023-02-28T05:38:48;50.67;;;25.15;;
30818;SDS011;17546;42.674;23.284;2023-02-28T05:41:17;57.33;;;25.70;;
30818;SDS011;17546;42.674;23.284;2023-02-28T05:43:44;51.05;;;22.38;;
30818;SDS011;17546;42.674;23.284;2023-02-28T05:46:11;46.90;;;22.42;;
30818;SDS011;17546;42.674;23.284;2023-02-28T05:48:38;51.45;;;23.85;;
30818;SDS011;17546;42.674;23.284;2023-02-28T05:51:05;50.92;;;23.77;;
30818;SDS011;17546;42.674;23.284;2023-02-28T05:53:31;57.85;;;26.17;;
30818;SDS011;17546;42.674;23.284;2023-02-28T05:55:58;64.13;;;27.40;;
30818;SDS011;17546;42.674;23.284;2023-02-28T05:58:24;74.40;;;28.98;;
30818;SDS011;17546;42.674;23.284;2023-02-28T06:00:55;64.72;;;27.80;;
30818;SDS011;17546;42.674;23.284;2023-02-28T06:03:25;63.03;;;27.90;;
30818;SDS011;17546;42.674;23.284;2023-02-28T06:05:51;55.65;;;26.05;;
30818;SDS011;17546;42.674;23.284;2023-02-28T06:08:16;58.80;;;26.95;;
30818;SDS011;17546;42.674;23.284;2023-02-28T06:10:43;55.15;;;26.42;;
30818;SDS011;17546;42.674;23.284;2023-02-28T06:13:10;61.58;;;27.42;;
30818;SDS011;17546;42.674;23.284;2023-02-28T06:15:36;59.83;;;26.00;;
30818;SDS011;17546;42.674;23.284;2023-02-28T06:18:02;58.85;;;26.55;;
30818;SDS011;17546;42.674;23.284;2023-02-28T06:20:28;58.38;;;26.10;;
30818;SDS011;17546;42.674;23.284;2023-02-28T06:22:54;52.35;;;24.65;;
30818;SDS011;17546;42.674;23.284;2023-02-28T06:25:21;55.20;;;23.40;;
30818;SDS011;17546;42.674;23.284;2023-02-28T06:27:46;56.08;;;24.60;;
30818;SDS011;17546;42.674;23.284;2023-02-28T06:30:14;60.38;;;25.08;;
30818;SDS011;17546;42.674;23.284;2023-02-28T06:32:40;60.00;;;28.27;;
30818;SDS011;17546;42.674;23.284;2023-02-28T06:35:05;86.05;;;36.17;;
30818;SDS011;17546;42.674;23.284;2023-02-28T06:37:32;86.65;;;35.53;;
30818;SDS011;17546;42.674;23.284;2023-02-28T06:39:57;89.85;;;36.75;;
30818;SDS011;17546;42.674;23.284;2023-02-28T06:42:23;95.10;;;38.45;;
30818;SDS011;17546;42.674;23.284;2023-02-28T06:44:55;98.15;;;39.53;;
30818;SDS011;17546;42.674;23.284;2023-02-28T06:47:21;98.32;;;39.33;;
30818;SDS011;17546;42.674;23.284;2023-02-28T06:49:47;97.90;;;39.00;;
30818;SDS011;17546;42.674;23.284;2023-02-28T06:52:12;89.15;;;37.92;;
30818;SDS011;17546;42.674;23.284;2023-02-28T06:54:39;90.53;;;40.78;;
30818;SDS011;17546;42.674;23.284;2023-02-28T06:57:04;90.38;;;40.22;;
30818;SDS011;17546;42.674;23.284;2023-02-28T06:59:30;102.03;;;42.95;;
30818;SDS011;17546;42.674;23.284;2023-02-28T07:01:56;115.97;;;47.63;;
30818;SDS011;17546;42.674;23.284;2023-02-28T07:04:21;101.30;;;42.50;;
30818;SDS011;17546;42.674;23.284;2023-02-28T07:06:47;88.03;;;39.25;;
30818;SDS011;17546;42.674;23.284;2023-02-28T07:09:12;69.28;;;32.00;;
30818;SDS011;17546;42.674;23.284;2023-02-28T07:11:39;68.97;;;32.17;;
30818;SDS011;17546;42.674;23.284;2023-02-28T07:14:05;65.53;;;31.08;;
30818;SDS011;17546;42.674;23.284;2023-02-28T07:16:31;69.60;;;31.88;;
30818;SDS011;17546;42.674;23.284;2023-02-28T07:18:57;74.45;;;33.95;;
30818;SDS011;17546;42.674;23.284;2023-02-28T07:21:22;89.03;;;40.13;;
30818;SDS011;17546;42.674;23.284;2023-02-28T07:23:48;67.80;;;31.55;;
30818;SDS011;17546;42.674;23.284;2023-02-28T07:26:14;93.43;;;39.05;;
30818;SDS011;17546;42.674;23.284;2023-02-28T07:28:42;111.60;;;43.92;;
30818;SDS011;17546;42.674;23.284;2023-02-28T07:31:08;108.72;;;42.10;;
30818;SDS011;17546;42.674;23.284;2023-02-28T07:33:35;102.25;;;42.08;;
30818;SDS011;17546;42.674;23.284;2023-02-28T07:36:05;110.97;;;41.92;;
30818;SDS011;17546;42.674;23.284;2023-02-28T07:38:36;105.80;;;39.90;;
30818;SDS011;17546;42.674;23.284;2023-02-28T07:41:02;100.85;;;40.75;;
30818;SDS011;17546;42.674;23.284;2023-02-28T07:43:31;97.07;;;40.00;;
30818;SDS011;17546;42.674;23.284;2023-02-28T07:46:05;95.63;;;39.47;;
30818;SDS011;17546;42.674;23.284;2023-02-28T07:48:32;91.53;;;38.63;;
30818;SDS011;17546;42.674;23.284;2023-02-28T07:50:58;91.38;;;39.80;;
30818;SDS011;17546;42.674;23.284;2023-02-28T07:53:24;83.82;;;38.67;;
30818;SDS011;17546;42.674;23.284;2023-02-28T07:55:50;92.78;;;39.97;;
30818;SDS011;17546;42.674;23.284;2023-02-28T07:58:16;102.15;;;40.60;;
30818;SDS011;17546;42.674;23.284;2023-02-28T08:00:41;97.45;;;41.28;;
30818;SDS011;17546;42.674;23.284;2023-02-28T08:03:08;100.68;;;42.30;;
30818;SDS011;17546;42.674;23.284;2023-02-28T08:05:40;95.25;;;41.63;;
30818;SDS011;17546;42.674;23.284;2023-02-28T08:08:05;98.50;;;41.08;;
30818;SDS011;17546;42.674;23.284;2023-02-28T08:10:32;90.55;;;41.28;;
30818;SDS011;17546;42.674;23.284;2023-02-28T08:12:57;100.03;;;42.67;;
30818;SDS011;17546;42.674;23.284;2023-02-28T08:15:23;89.05;;;40.85;;
30818;SDS011;17546;42.674;23.284;2023-02-28T08:17:48;97.00;;;42.42;;
30818;SDS011;17546;42.674;23.284;2023-02-28T08:20:13;100.65;;;42.10;;
30818;SDS011;17546;42.674;23.284;2023-02-28T08:22:39;92.20;;;40.88;;
30818;SDS011;17546;42.674;23.284;2023-02-28T08:25:04;88.53;;;40.72;;
30818;SDS011;17546;42.674;23.284;2023-02-28T08:27:32;101.10;;;40.40;;
30818;SDS011;17546;42.674;23.284;2023-02-28T08:29:57;99.88;;;40.75;;
30818;SDS011;17546;42.674;23.284;2023-02-28T08:32:23;104.10;;;41.28;;
30818;SDS011;17546;42.674;23.284;2023-02-28T08:34:48;110.18;;;42.75;;
30818;SDS011;17546;42.674;23.284;2023-02-28T08:37:14;106.32;;;40.33;;
30818;SDS011;17546;42.674;23.284;2023-02-28T08:39:39;112.95;;;42.30;;
30818;SDS011;17546;42.674;23.284;2023-02-28T08:42:04;113.22;;;44.63;;
30818;SDS011;17546;42.674;23.284;2023-02-28T08:44:30;118.18;;;46.00;;
30818;SDS011;17546;42.674;23.284;2023-02-28T08:46:55;108.10;;;45.45;;
30818;SDS011;17546;42.674;23.284;2023-02-28T08:49:21;111.10;;;45.03;;
30818;SDS011;17546;42.674;23.284;2023-02-28T08:51:46;104.97;;;45.28;;
30818;SDS011;17546;42.674;23.284;2023-02-28T08:54:12;100.18;;;41.75;;
30818;SDS011;17546;42.674;23.284;2023-02-28T08:56:38;108.55;;;41.85;;
30818;SDS011;17546;42.674;23.284;2023-02-28T08:59:03;106.22;;;43.33;;
30818;SDS011;17546;42.674;23.284;2023-02-28T09:01:29;96.13;;;41.58;;
30818;SDS011;17546;42.674;23.284;2023-02-28T09:03:56;95.38;;;41.25;;
30818;SDS011;17546;42.674;23.284;2023-02-28T09:06:23;99.93;;;41.58;;
30818;SDS011;17546;42.674;23.284;2023-02-28T09:08:49;103.07;;;41.33;;
30818;SDS011;17546;42.674;23.284;2023-02-28T09:11:16;101.60;;;41.30;;
30818;SDS011;17546;42.674;23.284;2023-02-28T09:13:42;102.10;;;41.17;;
30818;SDS011;17546;42.674;23.284;2023-02-28T09:16:08;107.55;;;43.45;;
30818;SDS011;17546;42.674;23.284;2023-02-28T09:18:37;106.22;;;41.13;;
30818;SDS011;17546;42.674;23.284;2023-02-28T09:21:04;101.05;;;39.03;;
30818;SDS011;17546;42.674;23.284;2023-02-28T09:23:33;95.15;;;39.55;;
30818;SDS011;17546;42.674;23.284;2023-02-28T09:25:59;103.57;;;40.40;;
30818;SDS011;17546;42.674;23.284;2023-02-28T09:28:25;114.32;;;40.78;;
30818;SDS011;17546;42.674;23.284;2023-02-28T09:30:52;101.15;;;39.03;;
30818;SDS011;17546;42.674;23.284;2023-02-28T09:33:19;101.88;;;39.70;;
30818;SDS011;17546;42.674;23.284;2023-02-28T09:35:46;91.18;;;39.08;;
30818;SDS011;17546;42.674;23.284;2023-02-28T09:38:16;106.25;;;39.35;;
30818;SDS011;17546;42.674;23.284;2023-02-28T09:43:18;93.80;;;39.70;;
30818;SDS011;17546;42.674;23.284;2023-02-28T09:45:48;95.60;;;39.30;;
30818;SDS011;17546;42.674;23.284;2023-02-28T09:48:25;92.38;;;39.92;;
30818;SDS011;17546;42.674;23.284;2023-02-28T09:51:04;109.60;;;44.28;;
30818;SDS011;17546;42.674;23.284;2023-02-28T09:53:39;114.75;;;46.08;;
30818;SDS011;17546;42.674;23.284;2023-02-28T09:56:07;126.20;;;52.97;;
30818;SDS011;17546;42.674;23.284;2023-02-28T10:03:58;128.50;;;51.78;;
30818;SDS011;17546;42.674;23.284;2023-02-28T10:06:29;115.90;;;50.30;;
30818;SDS011;17546;42.674;23.284;2023-02-28T10:09:10;119.30;;;49.83;;
30818;SDS011;17546;42.674;23.284;2023-02-28T10:11:39;112.97;;;49.40;;
30818;SDS011;17546;42.674;23.284;2023-02-28T10:14:13;113.00;;;45.75;;
30818;SDS011;17546;42.674;23.284;2023-02-28T10:24:51;116.55;;;54.30;;
30818;SDS011;17546;42.674;23.284;2023-02-28T10:27:23;130.55;;;58.00;;
30818;SDS011;17546;42.674;23.284;2023-02-28T10:29:53;130.40;;;56.72;;
30818;SDS011;17546;42.674;23.284;2023-02-28T10:32:25;106.65;;;48.78;;
30818;SDS011;17546;42.674;23.284;2023-02-28T10:37:59;103.40;;;45.92;;
30818;SDS011;17546;42.674;23.284;2023-02-28T10:40:34;102.03;;;44.58;;
30818;SDS011;17546;42.674;23.284;2023-02-28T10:45:26;80.97;;;38.00;;
30818;SDS011;17546;42.674;23.284;2023-02-28T10:47:59;54.13;;;23.13;;
30818;SDS011;17546;42.674;23.284;2023-02-28T10:50:43;48.50;;;20.20;;
30818;SDS011;17546;42.674;23.284;2023-02-28T10:56:00;48.30;;;15.38;;
30818;SDS011;17546;42.674;23.284;2023-02-28T11:01:38;47.03;;;14.88;;
30818;SDS011;17546;42.674;23.284;2023-02-28T11:04:20;44.15;;;15.65;;
30818;SDS011;17546;42.674;23.284;2023-02-28T11:09:44;39.30;;;15.32;;
30818;SDS011;17546;42.674;23.284;2023-02-28T11:12:20;39.97;;;14.65;;
30818;SDS011;17546;42.674;23.284;2023-02-28T11:15:02;41.53;;;15.68;;
30818;SDS011;17546;42.674;23.284;2023-02-28T11:17:31;43.95;;;16.15;;
30818;SDS011;17546;42.674;23.284;2023-02-28T11:20:04;46.00;;;14.85;;
30818;SDS011;17546;42.674;23.284;2023-02-28T11:22:33;37.93;;;14.10;;
30818;SDS011;17546;42.674;23.284;2023-02-28T11:25:24;37.67;;;13.63;;
30818;SDS011;17546;42.674;23.284;2023-02-28T11:38:44;41.38;;;15.07;;
30818;SDS011;17546;42.674;23.284;2023-02-28T11:46:36;43.83;;;15.35;;
30818;SDS011;17546;42.674;23.284;2023-02-28T11:49:22;35.72;;;15.38;;
30818;SDS011;17546;42.674;23.284;2023-02-28T11:52:06;44.28;;;16.40;;
30818;SDS011;17546;42.674;23.284;2023-02-28T11:54:51;35.72;;;14.15;;
30818;SDS011;17546;42.674;23.284;2023-02-28T12:05:21;45.05;;;16.30;;
30818;SDS011;17546;42.674;23.284;2023-02-28T12:07:59;39.20;;;16.77;;
30818;SDS011;17546;42.674;23.284;2023-02-28T12:10:30;39.45;;;16.42;;
30818;SDS011;17546;42.674;23.284;2023-02-28T12:26:56;45.25;;;17.30;;
30818;SDS011;17546;42.674;23.284;2023-02-28T12:29:26;44.58;;;18.50;;
30818;SDS011;17546;42.674;23.284;2023-02-28T12:34:34;43.05;;;17.45;;
30818;SDS011;17546;42.674;23.284;2023-02-28T12:37:07;41.13;;;16.25;;
30818;SDS011;17546;42.674;23.284;2023-02-28T12:39:40;43.85;;;15.55;;
30818;SDS011;17546;42.674;23.284;2023-02-28T12:42:53;38.85;;;15.30;;
30818;SDS011;17546;42.674;23.284;2023-02-28T12:47:59;43.28;;;16.15;;
30818;SDS011;17546;42.674;23.284;2023-02-28T12:50:29;45.35;;;15.70;;
30818;SDS011;17546;42.674;23.284;2023-02-28T12:53:06;34.83;;;16.73;;
30818;SDS011;17546;42.674;23.284;2023-02-28T12:56:07;36.33;;;15.65;;
30818;SDS011;17546;42.674;23.284;2023-02-28T13:03:42;32.70;;;14.67;;
30818;SDS011;17546;42.674;23.284;2023-02-28T13:11:38;36.13;;;14.32;;
30818;SDS011;17546;42.674;23.284;2023-02-28T13:14:05;42.03;;;15.73;;
30818;SDS011;17546;42.674;23.284;2023-02-28T13:16:48;46.60;;;15.05;;
30818;SDS011;17546;42.674;23.284;2023-02-28T13:19:18;41.83;;;15.27;;
30818;SDS011;17546;42.674;23.284;2023-02-28T13:21:46;45.72;;;16.08;;
30818;SDS011;17546;42.674;23.284;2023-02-28T13:24:35;38.78;;;15.70;;
30818;SDS011;17546;42.674;23.284;2023-02-28T13:27:11;37.53;;;15.80;;
30818;SDS011;17546;42.674;23.284;2023-02-28T13:29:49;41.47;;;16.33;;
30818;SDS011;17546;42.674;23.284;2023-02-28T13:32:20;54.53;;;16.05;;
30818;SDS011;17546;42.674;23.284;2023-02-28T13:40:32;37.85;;;14.77;;
30818;SDS011;17546;42.674;23.284;2023-02-28T13:47:36;36.78;;;13.38;;
30818;SDS011;17546;42.674;23.284;2023-02-28T13:55:43;37.28;;;14.27;;
30818;SDS011;17546;42.674;23.284;2023-02-28T14:00:46;35.75;;;12.93;;
30818;SDS011;17546;42.674;23.284;2023-02-28T14:06:55;39.05;;;13.20;;
30818;SDS011;17546;42.674;23.284;2023-02-28T14:09:26;28.77;;;11.70;;
30818;SDS011;17546;42.674;23.284;2023-02-28T14:11:54;39.75;;;13.15;;
30818;SDS011;17546;42.674;23.284;2023-02-28T14:17:06;34.42;;;12.55;;
30818;SDS011;17546;42.674;23.284;2023-02-28T14:19:37;38.00;;;13.45;;
30818;SDS011;17546;42.674;23.284;2023-02-28T14:22:08;41.30;;;13.02;;
30818;SDS011;17546;42.674;23.284;2023-02-28T14:33:11;35.67;;;13.85;;
30818;SDS011;17546;42.674;23.284;2023-02-28T14:41:29;42.92;;;15.48;;
30818;SDS011;17546;42.674;23.284;2023-02-28T14:43:59;34.22;;;13.82;;
30818;SDS011;17546;42.674;23.284;2023-02-28T14:46:28;46.60;;;13.50;;
30818;SDS011;17546;42.674;23.284;2023-02-28T14:49:06;40.15;;;14.55;;
30818;SDS011;17546;42.674;23.284;2023-02-28T14:51:38;32.35;;;13.68;;
30818;SDS011;17546;42.674;23.284;2023-02-28T14:54:03;34.25;;;14.02;;
30818;SDS011;17546;42.674;23.284;2023-02-28T14:56:34;32.80;;;13.45;;
30818;SDS011;17546;42.674;23.284;2023-02-28T14:59:02;35.45;;;13.50;;
30818;SDS011;17546;42.674;23.284;2023-02-28T15:01:28;34.20;;;12.18;;
30818;SDS011;17546;42.674;23.284;2023-02-28T15:04:01;29.42;;;12.20;;
30818;SDS011;17546;42.674;23.284;2023-02-28T15:06:29;36.83;;;12.65;;
30818;SDS011;17546;42.674;23.284;2023-02-28T15:09:14;34.25;;;12.45;;
30818;SDS011;17546;42.674;23.284;2023-02-28T15:11:42;36.17;;;12.43;;
30818;SDS011;17546;42.674;23.284;2023-02-28T15:14:17;48.65;;;14.45;;
30818;SDS011;17546;42.674;23.284;2023-02-28T15:16:45;44.55;;;13.98;;
30818;SDS011;17546;42.674;23.284;2023-02-28T15:19:32;53.08;;;14.55;;
30818;SDS011;17546;42.674;23.284;2023-02-28T15:22:04;37.25;;;13.43;;
30818;SDS011;17546;42.674;23.284;2023-02-28T15:24:46;38.45;;;12.50;;
30818;SDS011;17546;42.674;23.284;2023-02-28T15:27:16;36.30;;;12.20;;
30818;SDS011;17546;42.674;23.284;2023-02-28T15:29:48;40.55;;;13.93;;
30818;SDS011;17546;42.674;23.284;2023-02-28T15:32:29;38.40;;;13.00;;
30818;SDS011;17546;42.674;23.284;2023-02-28T15:34:57;32.55;;;11.88;;
30818;SDS011;17546;42.674;23.284;2023-02-28T15:39:55;36.42;;;12.27;;
30818;SDS011;17546;42.674;23.284;2023-02-28T15:42:30;31.95;;;11.57;;
30818;SDS011;17546;42.674;23.284;2023-02-28T15:44:56;32.78;;;11.10;;
30818;SDS011;17546;42.674;23.284;2023-02-28T15:47:23;28.60;;;11.35;;
30818;SDS011;17546;42.674;23.284;2023-02-28T15:49:56;28.67;;;10.55;;
30818;SDS011;17546;42.674;23.284;2023-02-28T15:52:42;33.28;;;11.05;;
30818;SDS011;17546;42.674;23.284;2023-02-28T15:55:11;28.33;;;10.60;;
30818;SDS011;17546;42.674;23.284;2023-02-28T15:57:44;27.27;;;11.70;;
30818;SDS011;17546;42.674;23.284;2023-02-28T16:00:21;33.65;;;11.27;;
30818;SDS011;17546;42.674;23.284;2023-02-28T16:02:48;31.95;;;12.25;;
30818;SDS011;17546;42.674;23.284;2023-02-28T16:07:53;29.90;;;10.70;;
30818;SDS011;17546;42.674;23.284;2023-02-28T16:13:04;30.73;;;9.52;;
30818;SDS011;17546;42.674;23.284;2023-02-28T16:15:31;17.88;;;9.70;;
30818;SDS011;17546;42.674;23.284;2023-02-28T16:18:07;27.60;;;11.40;;
30818;SDS011;17546;42.674;23.284;2023-02-28T16:20:35;19.75;;;9.38;;
30818;SDS011;17546;42.674;23.284;2023-02-28T16:23:00;25.40;;;10.30;;
30818;SDS011;17546;42.674;23.284;2023-02-28T16:25:38;21.48;;;11.15;;
30818;SDS011;17546;42.674;23.284;2023-02-28T16:28:19;24.38;;;11.70;;
30818;SDS011;17546;42.674;23.284;2023-02-28T16:30:48;24.02;;;10.93;;
30818;SDS011;17546;42.674;23.284;2023-02-28T16:33:16;17.65;;;9.73;;
30818;SDS011;17546;42.674;23.284;2023-02-28T16:35:42;20.02;;;9.80;;
30818;SDS011;17546;42.674;23.284;2023-02-28T16:38:07;19.13;;;10.30;;
30818;SDS011;17546;42.674;23.284;2023-02-28T16:40:33;19.45;;;10.93;;
30818;SDS011;17546;42.674;23.284;2023-02-28T16:43:00;21.95;;;10.15;;
30818;SDS011;17546;42.674;23.284;2023-02-28T16:45:42;21.92;;;8.85;;
30818;SDS011;17546;42.674;23.284;2023-02-28T16:48:08;18.92;;;9.73;;
30818;SDS011;17546;42.674;23.284;2023-02-28T16:50:38;20.85;;;9.85;;
30818;SDS011;17546;42.674;23.284;2023-02-28T16:53:03;19.38;;;8.82;;
30818;SDS011;17546;42.674;23.284;2023-02-28T16:55:29;16.83;;;8.30;;
30818;SDS011;17546;42.674;23.284;2023-02-28T16:57:55;16.38;;;8.13;;
30818;SDS011;17546;42.674;23.284;2023-02-28T17:00:22;22.35;;;8.90;;
30818;SDS011;17546;42.674;23.284;2023-02-28T17:02:49;16.25;;;8.60;;
30818;SDS011;17546;42.674;23.284;2023-02-28T17:05:16;18.50;;;8.65;;
30818;SDS011;17546;42.674;23.284;2023-02-28T17:07:42;17.23;;;7.88;;
30818;SDS011;17546;42.674;23.284;2023-02-28T17:10:16;14.80;;;8.48;;
30818;SDS011;17546;42.674;23.284;2023-02-28T17:12:49;16.02;;;8.02;;